sensor_id;sensor_type;location;lat;lon;timestamp;P1;durP1;ratioP1;P2;durP2;ratioP2
4547;SDS011;2286;51.570;7.090;2022-07-05T00:00:20;1.70;;;1.60;;
4547;SDS011;2286;51.570;7.090;2022-07-05T00:02:47;2.67;;;2.10;;
4547;SDS011;2286;51.570;7.090;2022-07-05T00:05:15;4.13;;;2.60;;
4547;SDS011;2286;51.570;7.090;2022-07-05T00:07:42;2.63;;;1.93;;
4547;SDS011;2286;51.570;7.090;2022-07-05T00:10:08;2.80;;;1.60;;
4547;SDS011;2286;51.570;7.090;2022-07-05T00:12:35;2.27;;;1.73;;
4547;SDS011;2286;51.570;7.090;2022-07-05T00:15:03;2.40;;;1.67;;
4547;SDS011;2286;51.570;7.090;2022-07-05T00:17:30;2.10;;;2.00;;
4547;SDS011;2286;51.570;7.090;2022-07-05T00:19:57;2.70;;;1.50;;
4547;SDS011;2286;51.570;7.090;2022-07-05T00:22:25;2.07;;;1.60;;
4547;SDS011;2286;51.570;7.090;2022-07-05T00:24:52;2.10;;;1.90;;
4547;SDS011;2286;51.570;7.090;2022-07-05T00:27:19;2.80;;;2.20;;
4547;SDS011;2286;51.570;7.090;2022-07-05T00:29:46;6.00;;;2.07;;
4547;SDS011;2286;51.570;7.090;2022-07-05T00:32:13;2.33;;;1.77;;
4547;SDS011;2286;51.570;7.090;2022-07-05T00:34:39;6.03;;;3.20;;
4547;SDS011;2286;51.570;7.090;2022-07-05T00:37:06;2.50;;;2.27;;
4547;SDS011;2286;51.570;7.090;2022-07-05T00:39:34;2.43;;;2.10;;
4547;SDS011;2286;51.570;7.090;2022-07-05T00:42:01;4.37;;;2.10;;
4547;SDS011;2286;51.570;7.090;2022-07-05T00:44:29;3.00;;;2.10;;
4547;SDS011;2286;51.570;7.090;2022-07-05T00:46:57;2.77;;;1.93;;
4547;SDS011;2286;51.570;7.090;2022-07-05T00:49:24;2.00;;;1.90;;
4547;SDS011;2286;51.570;7.090;2022-07-05T00:51:51;2.13;;;1.93;;
4547;SDS011;2286;51.570;7.090;2022-07-05T00:54:18;2.30;;;2.13;;
4547;SDS011;2286;51.570;7.090;2022-07-05T00:56:46;2.87;;;2.33;;
4547;SDS011;2286;51.570;7.090;2022-07-05T00:59:13;2.63;;;2.03;;
4547;SDS011;2286;51.570;7.090;2022-07-05T01:01:41;2.23;;;2.03;;
4547;SDS011;2286;51.570;7.090;2022-07-05T01:04:08;4.83;;;2.03;;
4547;SDS011;2286;51.570;7.090;2022-07-05T01:06:36;3.80;;;2.40;;
4547;SDS011;2286;51.570;7.090;2022-07-05T01:09:04;3.50;;;2.00;;
4547;SDS011;2286;51.570;7.090;2022-07-05T01:11:31;2.67;;;2.10;;
4547;SDS011;2286;51.570;7.090;2022-07-05T01:13:59;2.40;;;1.80;;
4547;SDS011;2286;51.570;7.090;2022-07-05T01:16:27;3.40;;;1.70;;
4547;SDS011;2286;51.570;7.090;2022-07-05T01:18:54;2.13;;;1.63;;
4547;SDS011;2286;51.570;7.090;2022-07-05T01:21:21;3.10;;;2.20;;
4547;SDS011;2286;51.570;7.090;2022-07-05T01:23:52;2.90;;;2.17;;
4547;SDS011;2286;51.570;7.090;2022-07-05T01:26:19;2.20;;;2.10;;
4547;SDS011;2286;51.570;7.090;2022-07-05T01:28:46;2.07;;;1.97;;
4547;SDS011;2286;51.570;7.090;2022-07-05T01:31:13;2.53;;;2.30;;
4547;SDS011;2286;51.570;7.090;2022-07-05T01:33:40;2.63;;;2.00;;
4547;SDS011;2286;51.570;7.090;2022-07-05T01:36:08;2.23;;;2.03;;
4547;SDS011;2286;51.570;7.090;2022-07-05T01:38:37;3.50;;;2.30;;
4547;SDS011;2286;51.570;7.090;2022-07-05T01:41:06;2.47;;;2.20;;
4547;SDS011;2286;51.570;7.090;2022-07-05T01:43:35;2.07;;;1.90;;
4547;SDS011;2286;51.570;7.090;2022-07-05T01:46:03;2.63;;;2.13;;
4547;SDS011;2286;51.570;7.090;2022-07-05T01:48:32;2.37;;;2.03;;
4547;SDS011;2286;51.570;7.090;2022-07-05T01:51:01;2.80;;;2.60;;
4547;SDS011;2286;51.570;7.090;2022-07-05T01:53:32;4.83;;;2.97;;
4547;SDS011;2286;51.570;7.090;2022-07-05T01:55:59;2.70;;;2.53;;
4547;SDS011;2286;51.570;7.090;2022-07-05T01:58:29;2.53;;;2.33;;
4547;SDS011;2286;51.570;7.090;2022-07-05T02:00:57;3.43;;;3.00;;
4547;SDS011;2286;51.570;7.090;2022-07-05T02:03:25;3.60;;;2.07;;
4547;SDS011;2286;51.570;7.090;2022-07-05T02:05:52;2.60;;;2.23;;
4547;SDS011;2286;51.570;7.090;2022-07-05T02:08:19;3.30;;;2.33;;
4547;SDS011;2286;51.570;7.090;2022-07-05T02:10:47;2.90;;;2.50;;
4547;SDS011;2286;51.570;7.090;2022-07-05T02:13:14;4.53;;;2.60;;
4547;SDS011;2286;51.570;7.090;2022-07-05T02:15:42;2.10;;;2.00;;
4547;SDS011;2286;51.570;7.090;2022-07-05T02:18:09;2.60;;;2.23;;
4547;SDS011;2286;51.570;7.090;2022-07-05T02:20:39;2.10;;;2.00;;
4547;SDS011;2286;51.570;7.090;2022-07-05T02:23:06;2.43;;;2.23;;
4547;SDS011;2286;51.570;7.090;2022-07-05T02:25:34;2.13;;;2.03;;
4547;SDS011;2286;51.570;7.090;2022-07-05T02:28:01;2.93;;;2.50;;
4547;SDS011;2286;51.570;7.090;2022-07-05T02:30:28;4.00;;;2.57;;
4547;SDS011;2286;51.570;7.090;2022-07-05T02:32:56;2.97;;;2.50;;
4547;SDS011;2286;51.570;7.090;2022-07-05T02:35:23;2.80;;;2.60;;
4547;SDS011;2286;51.570;7.090;2022-07-05T02:37:50;3.00;;;2.27;;
4547;SDS011;2286;51.570;7.090;2022-07-05T02:40:17;2.47;;;2.27;;
4547;SDS011;2286;51.570;7.090;2022-07-05T02:42:44;2.57;;;2.37;;
4547;SDS011;2286;51.570;7.090;2022-07-05T02:45:11;3.20;;;2.90;;
4547;SDS011;2286;51.570;7.090;2022-07-05T02:47:38;4.60;;;2.93;;
4547;SDS011;2286;51.570;7.090;2022-07-05T02:50:07;3.50;;;3.30;;
4547;SDS011;2286;51.570;7.090;2022-07-05T02:52:35;3.50;;;3.20;;
4547;SDS011;2286;51.570;7.090;2022-07-05T02:55:02;3.73;;;3.33;;
4547;SDS011;2286;51.570;7.090;2022-07-05T02:57:30;3.10;;;2.90;;
4547;SDS011;2286;51.570;7.090;2022-07-05T02:59:57;3.07;;;2.87;;
4547;SDS011;2286;51.570;7.090;2022-07-05T03:02:24;3.60;;;3.30;;
4547;SDS011;2286;51.570;7.090;2022-07-05T03:04:51;3.17;;;2.93;;
4547;SDS011;2286;51.570;7.090;2022-07-05T03:07:19;3.60;;;3.40;;
4547;SDS011;2286;51.570;7.090;2022-07-05T03:09:46;3.23;;;2.77;;
4547;SDS011;2286;51.570;7.090;2022-07-05T03:12:13;3.57;;;3.27;;
4547;SDS011;2286;51.570;7.090;2022-07-05T03:14:39;3.83;;;2.97;;
4547;SDS011;2286;51.570;7.090;2022-07-05T03:17:07;3.63;;;2.93;;
4547;SDS011;2286;51.570;7.090;2022-07-05T03:19:34;3.07;;;2.87;;
4547;SDS011;2286;51.570;7.090;2022-07-05T03:22:01;2.93;;;2.63;;
4547;SDS011;2286;51.570;7.090;2022-07-05T03:24:29;4.17;;;2.53;;
4547;SDS011;2286;51.570;7.090;2022-07-05T03:26:56;2.87;;;2.57;;
4547;SDS011;2286;51.570;7.090;2022-07-05T03:29:23;2.90;;;2.30;;
4547;SDS011;2286;51.570;7.090;2022-07-05T03:31:50;2.30;;;2.10;;
4547;SDS011;2286;51.570;7.090;2022-07-05T03:34:16;2.73;;;2.23;;
4547;SDS011;2286;51.570;7.090;2022-07-05T03:36:43;2.73;;;2.17;;
4547;SDS011;2286;51.570;7.090;2022-07-05T03:39:10;4.90;;;2.10;;
4547;SDS011;2286;51.570;7.090;2022-07-05T03:41:39;2.13;;;2.03;;
4547;SDS011;2286;51.570;7.090;2022-07-05T03:44:06;3.20;;;2.40;;
4547;SDS011;2286;51.570;7.090;2022-07-05T03:46:32;2.43;;;2.10;;
4547;SDS011;2286;51.570;7.090;2022-07-05T03:48:59;3.20;;;2.47;;
4547;SDS011;2286;51.570;7.090;2022-07-05T03:51:26;4.00;;;2.30;;
4547;SDS011;2286;51.570;7.090;2022-07-05T03:53:53;4.60;;;2.23;;
4547;SDS011;2286;51.570;7.090;2022-07-05T03:56:20;3.47;;;2.47;;
4547;SDS011;2286;51.570;7.090;2022-07-05T03:58:49;4.33;;;2.80;;
4547;SDS011;2286;51.570;7.090;2022-07-05T04:01:16;2.30;;;2.07;;
4547;SDS011;2286;51.570;7.090;2022-07-05T04:03:43;3.03;;;2.80;;
4547;SDS011;2286;51.570;7.090;2022-07-05T04:06:10;3.27;;;2.80;;
4547;SDS011;2286;51.570;7.090;2022-07-05T04:08:38;3.40;;;3.00;;
4547;SDS011;2286;51.570;7.090;2022-07-05T04:11:05;3.57;;;3.27;;
4547;SDS011;2286;51.570;7.090;2022-07-05T04:13:33;5.97;;;3.17;;
4547;SDS011;2286;51.570;7.090;2022-07-05T04:16:01;3.37;;;3.10;;
4547;SDS011;2286;51.570;7.090;2022-07-05T04:18:28;3.97;;;3.60;;
4547;SDS011;2286;51.570;7.090;2022-07-05T04:20:55;4.37;;;4.00;;
4547;SDS011;2286;51.570;7.090;2022-07-05T04:23:21;4.53;;;4.10;;
4547;SDS011;2286;51.570;7.090;2022-07-05T04:25:48;3.57;;;3.27;;
4547;SDS011;2286;51.570;7.090;2022-07-05T04:28:15;4.40;;;3.40;;
4547;SDS011;2286;51.570;7.090;2022-07-05T04:30:42;4.70;;;3.30;;
4547;SDS011;2286;51.570;7.090;2022-07-05T04:33:10;3.57;;;2.97;;
4547;SDS011;2286;51.570;7.090;2022-07-05T04:35:37;3.07;;;2.87;;
4547;SDS011;2286;51.570;7.090;2022-07-05T04:38:04;8.23;;;3.63;;
4547;SDS011;2286;51.570;7.090;2022-07-05T04:40:31;3.77;;;3.47;;
4547;SDS011;2286;51.570;7.090;2022-07-05T04:42:58;3.80;;;3.40;;
4547;SDS011;2286;51.570;7.090;2022-07-05T04:45:25;3.93;;;3.50;;
4547;SDS011;2286;51.570;7.090;2022-07-05T04:47:52;5.37;;;3.20;;
4547;SDS011;2286;51.570;7.090;2022-07-05T04:50:20;4.17;;;3.50;;
4547;SDS011;2286;51.570;7.090;2022-07-05T04:52:47;5.00;;;3.70;;
4547;SDS011;2286;51.570;7.090;2022-07-05T04:55:14;3.70;;;3.40;;
4547;SDS011;2286;51.570;7.090;2022-07-05T04:57:41;3.80;;;3.50;;
4547;SDS011;2286;51.570;7.090;2022-07-05T05:00:09;4.47;;;3.70;;
4547;SDS011;2286;51.570;7.090;2022-07-05T05:02:38;4.63;;;4.03;;
4547;SDS011;2286;51.570;7.090;2022-07-05T05:05:05;3.63;;;3.43;;
4547;SDS011;2286;51.570;7.090;2022-07-05T05:07:33;5.30;;;3.83;;
4547;SDS011;2286;51.570;7.090;2022-07-05T05:10:02;4.07;;;3.67;;
4547;SDS011;2286;51.570;7.090;2022-07-05T05:12:30;4.97;;;4.07;;
4547;SDS011;2286;51.570;7.090;2022-07-05T05:14:57;5.20;;;4.30;;
4547;SDS011;2286;51.570;7.090;2022-07-05T05:17:24;4.93;;;4.53;;
4547;SDS011;2286;51.570;7.090;2022-07-05T05:19:51;6.20;;;5.47;;
4547;SDS011;2286;51.570;7.090;2022-07-05T05:22:18;5.27;;;4.77;;
4547;SDS011;2286;51.570;7.090;2022-07-05T05:24:46;6.10;;;5.10;;
4547;SDS011;2286;51.570;7.090;2022-07-05T05:27:13;5.53;;;5.03;;
4547;SDS011;2286;51.570;7.090;2022-07-05T05:29:40;5.80;;;5.37;;
4547;SDS011;2286;51.570;7.090;2022-07-05T05:32:07;5.90;;;5.27;;
4547;SDS011;2286;51.570;7.090;2022-07-05T05:34:34;7.73;;;5.70;;
4547;SDS011;2286;51.570;7.090;2022-07-05T05:37:00;6.00;;;5.47;;
4547;SDS011;2286;51.570;7.090;2022-07-05T05:39:27;6.73;;;5.50;;
4547;SDS011;2286;51.570;7.090;2022-07-05T05:41:56;6.47;;;5.90;;
4547;SDS011;2286;51.570;7.090;2022-07-05T05:44:22;6.70;;;5.97;;
4547;SDS011;2286;51.570;7.090;2022-07-05T05:46:49;9.37;;;5.50;;
4547;SDS011;2286;51.570;7.090;2022-07-05T05:49:16;5.67;;;5.27;;
4547;SDS011;2286;51.570;7.090;2022-07-05T05:51:43;7.33;;;5.63;;
4547;SDS011;2286;51.570;7.090;2022-07-05T05:54:10;6.17;;;5.57;;
4547;SDS011;2286;51.570;7.090;2022-07-05T05:56:37;5.10;;;4.70;;
4547;SDS011;2286;51.570;7.090;2022-07-05T05:59:05;5.60;;;5.00;;
4547;SDS011;2286;51.570;7.090;2022-07-05T06:01:33;5.97;;;5.10;;
4547;SDS011;2286;51.570;7.090;2022-07-05T06:04:00;5.73;;;4.17;;
4547;SDS011;2286;51.570;7.090;2022-07-05T06:06:27;5.37;;;4.23;;
4547;SDS011;2286;51.570;7.090;2022-07-05T06:08:54;5.10;;;4.60;;
4547;SDS011;2286;51.570;7.090;2022-07-05T06:11:21;5.37;;;4.87;;
4547;SDS011;2286;51.570;7.090;2022-07-05T06:13:48;9.83;;;4.40;;
4547;SDS011;2286;51.570;7.090;2022-07-05T06:16:16;5.40;;;4.77;;
4547;SDS011;2286;51.570;7.090;2022-07-05T06:18:44;7.43;;;4.20;;
4547;SDS011;2286;51.570;7.090;2022-07-05T06:21:10;4.93;;;4.23;;
4547;SDS011;2286;51.570;7.090;2022-07-05T06:23:37;5.27;;;4.07;;
4547;SDS011;2286;51.570;7.090;2022-07-05T06:26:04;3.80;;;3.50;;
4547;SDS011;2286;51.570;7.090;2022-07-05T06:28:31;4.13;;;2.50;;
4547;SDS011;2286;51.570;7.090;2022-07-05T06:30:58;4.00;;;3.53;;
4547;SDS011;2286;51.570;7.090;2022-07-05T06:33:26;2.47;;;1.77;;
4547;SDS011;2286;51.570;7.090;2022-07-05T06:35:54;2.03;;;1.80;;
4547;SDS011;2286;51.570;7.090;2022-07-05T06:38:21;2.30;;;2.13;;
4547;SDS011;2286;51.570;7.090;2022-07-05T06:40:48;5.53;;;1.73;;
4547;SDS011;2286;51.570;7.090;2022-07-05T06:43:15;1.40;;;1.30;;
4547;SDS011;2286;51.570;7.090;2022-07-05T06:45:42;1.40;;;1.30;;
4547;SDS011;2286;51.570;7.090;2022-07-05T06:48:09;2.20;;;0.93;;
4547;SDS011;2286;51.570;7.090;2022-07-05T06:50:39;2.73;;;1.50;;
4547;SDS011;2286;51.570;7.090;2022-07-05T06:53:07;1.40;;;1.30;;
4547;SDS011;2286;51.570;7.090;2022-07-05T06:55:34;2.00;;;1.70;;
4547;SDS011;2286;51.570;7.090;2022-07-05T06:58:01;3.70;;;1.63;;
4547;SDS011;2286;51.570;7.090;2022-07-05T07:00:30;5.33;;;1.67;;
4547;SDS011;2286;51.570;7.090;2022-07-05T07:02:58;2.93;;;1.50;;
4547;SDS011;2286;51.570;7.090;2022-07-05T07:05:25;7.87;;;1.70;;
4547;SDS011;2286;51.570;7.090;2022-07-05T07:07:53;2.60;;;1.50;;
4547;SDS011;2286;51.570;7.090;2022-07-05T07:10:39;2.27;;;1.97;;
4547;SDS011;2286;51.570;7.090;2022-07-05T07:13:06;1.90;;;1.50;;
4547;SDS011;2286;51.570;7.090;2022-07-05T07:15:33;2.40;;;1.53;;
4547;SDS011;2286;51.570;7.090;2022-07-05T07:18:00;3.33;;;1.40;;
4547;SDS011;2286;51.570;7.090;2022-07-05T07:20:27;3.30;;;1.47;;
4547;SDS011;2286;51.570;7.090;2022-07-05T07:22:56;4.43;;;1.80;;
4547;SDS011;2286;51.570;7.090;2022-07-05T07:25:23;4.63;;;1.30;;
4547;SDS011;2286;51.570;7.090;2022-07-05T07:27:51;3.80;;;1.40;;
4547;SDS011;2286;51.570;7.090;2022-07-05T07:30:20;2.00;;;1.67;;
4547;SDS011;2286;51.570;7.090;2022-07-05T07:32:47;3.40;;;2.00;;
4547;SDS011;2286;51.570;7.090;2022-07-05T07:35:14;4.00;;;2.00;;
4547;SDS011;2286;51.570;7.090;2022-07-05T07:37:41;3.90;;;1.80;;
4547;SDS011;2286;51.570;7.090;2022-07-05T07:40:10;2.80;;;2.07;;
4547;SDS011;2286;51.570;7.090;2022-07-05T07:42:38;2.50;;;2.30;;
4547;SDS011;2286;51.570;7.090;2022-07-05T07:45:05;7.10;;;2.00;;
4547;SDS011;2286;51.570;7.090;2022-07-05T07:47:34;1.77;;;1.40;;
4547;SDS011;2286;51.570;7.090;2022-07-05T07:50:02;3.27;;;1.80;;
4547;SDS011;2286;51.570;7.090;2022-07-05T07:52:30;1.87;;;1.30;;
4547;SDS011;2286;51.570;7.090;2022-07-05T07:54:58;2.20;;;1.90;;
4547;SDS011;2286;51.570;7.090;2022-07-05T07:57:27;2.30;;;1.80;;
4547;SDS011;2286;51.570;7.090;2022-07-05T07:59:54;5.10;;;2.10;;
4547;SDS011;2286;51.570;7.090;2022-07-05T08:02:21;3.00;;;1.90;;
4547;SDS011;2286;51.570;7.090;2022-07-05T08:04:49;4.27;;;1.93;;
4547;SDS011;2286;51.570;7.090;2022-07-05T08:07:16;4.80;;;1.50;;
4547;SDS011;2286;51.570;7.090;2022-07-05T08:09:44;1.97;;;1.37;;
4547;SDS011;2286;51.570;7.090;2022-07-05T08:12:11;4.27;;;1.40;;
4547;SDS011;2286;51.570;7.090;2022-07-05T08:14:39;1.20;;;1.10;;
4547;SDS011;2286;51.570;7.090;2022-07-05T08:17:06;1.90;;;1.60;;
4547;SDS011;2286;51.570;7.090;2022-07-05T08:19:34;2.70;;;1.57;;
4547;SDS011;2286;51.570;7.090;2022-07-05T08:22:18;3.50;;;1.90;;
4547;SDS011;2286;51.570;7.090;2022-07-05T08:24:46;2.03;;;1.63;;
4547;SDS011;2286;51.570;7.090;2022-07-05T08:27:13;2.27;;;1.40;;
4547;SDS011;2286;51.570;7.090;2022-07-05T08:29:41;1.43;;;1.00;;
4547;SDS011;2286;51.570;7.090;2022-07-05T08:32:08;1.67;;;1.20;;
4547;SDS011;2286;51.570;7.090;2022-07-05T08:34:36;2.87;;;1.03;;
4547;SDS011;2286;51.570;7.090;2022-07-05T08:37:03;2.30;;;1.43;;
4547;SDS011;2286;51.570;7.090;2022-07-05T08:39:30;2.67;;;1.50;;
4547;SDS011;2286;51.570;7.090;2022-07-05T08:41:58;3.10;;;1.20;;
4547;SDS011;2286;51.570;7.090;2022-07-05T08:44:26;2.00;;;1.30;;
4547;SDS011;2286;51.570;7.090;2022-07-05T08:46:56;4.13;;;2.37;;
4547;SDS011;2286;51.570;7.090;2022-07-05T08:49:25;2.70;;;1.83;;
4547;SDS011;2286;51.570;7.090;2022-07-05T08:51:53;3.30;;;1.80;;
4547;SDS011;2286;51.570;7.090;2022-07-05T08:54:21;2.40;;;2.20;;
4547;SDS011;2286;51.570;7.090;2022-07-05T08:56:50;2.00;;;1.70;;
4547;SDS011;2286;51.570;7.090;2022-07-05T08:59:17;1.77;;;1.67;;
4547;SDS011;2286;51.570;7.090;2022-07-05T09:01:44;2.80;;;1.47;;
4547;SDS011;2286;51.570;7.090;2022-07-05T09:04:13;3.63;;;1.67;;
4547;SDS011;2286;51.570;7.090;2022-07-05T09:06:44;4.67;;;1.67;;
4547;SDS011;2286;51.570;7.090;2022-07-05T09:09:13;2.80;;;1.53;;
4547;SDS011;2286;51.570;7.090;2022-07-05T09:11:43;3.90;;;1.40;;
4547;SDS011;2286;51.570;7.090;2022-07-05T09:14:18;1.90;;;1.47;;
4547;SDS011;2286;51.570;7.090;2022-07-05T09:16:46;3.13;;;1.10;;
4547;SDS011;2286;51.570;7.090;2022-07-05T09:19:14;3.23;;;1.20;;
4547;SDS011;2286;51.570;7.090;2022-07-05T09:21:41;2.70;;;1.50;;
4547;SDS011;2286;51.570;7.090;2022-07-05T09:24:08;1.33;;;1.00;;
4547;SDS011;2286;51.570;7.090;2022-07-05T09:26:37;2.70;;;1.20;;
4547;SDS011;2286;51.570;7.090;2022-07-05T09:29:05;1.30;;;1.20;;
4547;SDS011;2286;51.570;7.090;2022-07-05T09:31:34;4.77;;;1.37;;
4547;SDS011;2286;51.570;7.090;2022-07-05T09:34:05;1.40;;;1.20;;
4547;SDS011;2286;51.570;7.090;2022-07-05T09:36:50;2.23;;;1.20;;
4547;SDS011;2286;51.570;7.090;2022-07-05T09:39:33;2.90;;;1.10;;
4547;SDS011;2286;51.570;7.090;2022-07-05T09:42:08;5.40;;;1.50;;
4547;SDS011;2286;51.570;7.090;2022-07-05T09:44:36;2.10;;;1.20;;
4547;SDS011;2286;51.570;7.090;2022-07-05T09:47:07;3.03;;;1.50;;
4547;SDS011;2286;51.570;7.090;2022-07-05T09:49:35;2.43;;;1.40;;
4547;SDS011;2286;51.570;7.090;2022-07-05T09:52:05;3.17;;;1.30;;
4547;SDS011;2286;51.570;7.090;2022-07-05T09:54:32;3.60;;;1.43;;
4547;SDS011;2286;51.570;7.090;2022-07-05T09:56:59;2.30;;;1.30;;
4547;SDS011;2286;51.570;7.090;2022-07-05T09:59:25;1.80;;;1.20;;
4547;SDS011;2286;51.570;7.090;2022-07-05T10:01:53;1.90;;;1.33;;
4547;SDS011;2286;51.570;7.090;2022-07-05T10:04:19;1.27;;;1.17;;
4547;SDS011;2286;51.570;7.090;2022-07-05T10:06:47;2.20;;;1.30;;
4547;SDS011;2286;51.570;7.090;2022-07-05T10:09:15;2.30;;;1.30;;
4547;SDS011;2286;51.570;7.090;2022-07-05T10:11:44;1.63;;;1.10;;
4547;SDS011;2286;51.570;7.090;2022-07-05T10:14:13;4.67;;;1.60;;
4547;SDS011;2286;51.570;7.090;2022-07-05T10:16:43;3.27;;;1.20;;
4547;SDS011;2286;51.570;7.090;2022-07-05T10:19:15;1.53;;;1.10;;
4547;SDS011;2286;51.570;7.090;2022-07-05T10:21:44;1.47;;;0.97;;
4547;SDS011;2286;51.570;7.090;2022-07-05T10:24:12;2.27;;;1.50;;
4547;SDS011;2286;51.570;7.090;2022-07-05T10:26:42;1.00;;;1.00;;
4547;SDS011;2286;51.570;7.090;2022-07-05T10:29:10;1.90;;;1.40;;
4547;SDS011;2286;51.570;7.090;2022-07-05T10:31:38;1.53;;;1.20;;
4547;SDS011;2286;51.570;7.090;2022-07-05T10:34:05;4.80;;;1.50;;
4547;SDS011;2286;51.570;7.090;2022-07-05T10:36:33;1.30;;;1.20;;
4547;SDS011;2286;51.570;7.090;2022-07-05T10:39:03;3.57;;;1.57;;
4547;SDS011;2286;51.570;7.090;2022-07-05T10:41:32;3.93;;;1.40;;
4547;SDS011;2286;51.570;7.090;2022-07-05T10:43:59;2.30;;;1.00;;
4547;SDS011;2286;51.570;7.090;2022-07-05T10:46:33;1.50;;;1.30;;
4547;SDS011;2286;51.570;7.090;2022-07-05T10:49:16;1.77;;;1.10;;
4547;SDS011;2286;51.570;7.090;2022-07-05T10:51:43;1.30;;;1.17;;
4547;SDS011;2286;51.570;7.090;2022-07-05T10:54:10;3.10;;;2.23;;
4547;SDS011;2286;51.570;7.090;2022-07-05T10:56:39;1.63;;;1.13;;
4547;SDS011;2286;51.570;7.090;2022-07-05T10:59:06;1.40;;;1.10;;
4547;SDS011;2286;51.570;7.090;2022-07-05T11:01:37;1.60;;;1.20;;
4547;SDS011;2286;51.570;7.090;2022-07-05T11:07:03;1.40;;;1.30;;
4547;SDS011;2286;51.570;7.090;2022-07-05T11:09:33;2.73;;;1.33;;
4547;SDS011;2286;51.570;7.090;2022-07-05T11:12:11;3.20;;;1.43;;
4547;SDS011;2286;51.570;7.090;2022-07-05T11:14:45;2.30;;;1.50;;
4547;SDS011;2286;51.570;7.090;2022-07-05T11:17:13;1.53;;;1.43;;
4547;SDS011;2286;51.570;7.090;2022-07-05T11:22:41;2.50;;;1.27;;
4547;SDS011;2286;51.570;7.090;2022-07-05T11:25:23;2.90;;;1.27;;
4547;SDS011;2286;51.570;7.090;2022-07-05T11:28:01;3.43;;;1.57;;
4547;SDS011;2286;51.570;7.090;2022-07-05T11:30:46;2.63;;;1.40;;
4547;SDS011;2286;51.570;7.090;2022-07-05T11:33:30;2.30;;;1.53;;
4547;SDS011;2286;51.570;7.090;2022-07-05T11:36:07;2.23;;;1.40;;
4547;SDS011;2286;51.570;7.090;2022-07-05T11:41:33;2.30;;;1.40;;
4547;SDS011;2286;51.570;7.090;2022-07-05T11:44:03;2.70;;;1.80;;
4547;SDS011;2286;51.570;7.090;2022-07-05T11:46:32;3.00;;;1.60;;
4547;SDS011;2286;51.570;7.090;2022-07-05T11:48:59;3.30;;;1.70;;
4547;SDS011;2286;51.570;7.090;2022-07-05T11:51:26;2.80;;;1.40;;
4547;SDS011;2286;51.570;7.090;2022-07-05T11:53:53;1.53;;;1.43;;
4547;SDS011;2286;51.570;7.090;2022-07-05T11:56:20;2.83;;;1.50;;
4547;SDS011;2286;51.570;7.090;2022-07-05T11:58:47;1.67;;;1.20;;
4547;SDS011;2286;51.570;7.090;2022-07-05T12:01:16;3.33;;;1.40;;
4547;SDS011;2286;51.570;7.090;2022-07-05T12:03:52;1.30;;;1.20;;
4547;SDS011;2286;51.570;7.090;2022-07-05T12:06:20;1.60;;;1.33;;
4547;SDS011;2286;51.570;7.090;2022-07-05T12:09:00;2.10;;;1.40;;
4547;SDS011;2286;51.570;7.090;2022-07-05T12:11:28;2.10;;;1.37;;
4547;SDS011;2286;51.570;7.090;2022-07-05T12:14:19;3.57;;;1.50;;
4547;SDS011;2286;51.570;7.090;2022-07-05T12:16:48;2.07;;;1.60;;
4547;SDS011;2286;51.570;7.090;2022-07-05T12:19:25;1.53;;;1.40;;
4547;SDS011;2286;51.570;7.090;2022-07-05T12:21:53;4.10;;;1.83;;
4547;SDS011;2286;51.570;7.090;2022-07-05T12:24:20;2.20;;;1.90;;
4547;SDS011;2286;51.570;7.090;2022-07-05T12:26:49;1.80;;;1.50;;
4547;SDS011;2286;51.570;7.090;2022-07-05T12:29:17;3.10;;;1.37;;
4547;SDS011;2286;51.570;7.090;2022-07-05T12:34:28;2.27;;;1.63;;
4547;SDS011;2286;51.570;7.090;2022-07-05T12:36:55;2.33;;;1.90;;
4547;SDS011;2286;51.570;7.090;2022-07-05T12:39:23;3.83;;;2.00;;
4547;SDS011;2286;51.570;7.090;2022-07-05T12:41:50;1.83;;;1.73;;
4547;SDS011;2286;51.570;7.090;2022-07-05T12:44:18;1.70;;;1.57;;
4547;SDS011;2286;51.570;7.090;2022-07-05T12:46:46;2.20;;;1.63;;
4547;SDS011;2286;51.570;7.090;2022-07-05T12:49:15;3.80;;;2.00;;
4547;SDS011;2286;51.570;7.090;2022-07-05T12:51:43;3.10;;;1.70;;
4547;SDS011;2286;51.570;7.090;2022-07-05T12:54:18;2.10;;;1.90;;
4547;SDS011;2286;51.570;7.090;2022-07-05T12:57:04;2.20;;;1.70;;
4547;SDS011;2286;51.570;7.090;2022-07-05T12:59:56;1.87;;;1.50;;
4547;SDS011;2286;51.570;7.090;2022-07-05T13:02:32;1.97;;;1.40;;
4547;SDS011;2286;51.570;7.090;2022-07-05T13:05:01;2.00;;;1.53;;
4547;SDS011;2286;51.570;7.090;2022-07-05T13:07:28;2.27;;;1.80;;
4547;SDS011;2286;51.570;7.090;2022-07-05T13:09:55;2.90;;;1.83;;
4547;SDS011;2286;51.570;7.090;2022-07-05T13:12:39;4.30;;;1.80;;
4547;SDS011;2286;51.570;7.090;2022-07-05T13:15:06;1.87;;;1.40;;
4547;SDS011;2286;51.570;7.090;2022-07-05T13:17:34;3.13;;;1.73;;
4547;SDS011;2286;51.570;7.090;2022-07-05T13:20:02;2.87;;;1.73;;
4547;SDS011;2286;51.570;7.090;2022-07-05T13:22:30;2.70;;;1.77;;
4547;SDS011;2286;51.570;7.090;2022-07-05T13:24:56;3.20;;;2.43;;
4547;SDS011;2286;51.570;7.090;2022-07-05T13:27:23;3.03;;;1.50;;
4547;SDS011;2286;51.570;7.090;2022-07-05T13:29:50;2.67;;;2.00;;
4547;SDS011;2286;51.570;7.090;2022-07-05T13:32:17;2.33;;;1.53;;
4547;SDS011;2286;51.570;7.090;2022-07-05T13:34:46;3.63;;;1.60;;
4547;SDS011;2286;51.570;7.090;2022-07-05T13:37:15;4.20;;;1.90;;
4547;SDS011;2286;51.570;7.090;2022-07-05T13:39:42;4.23;;;1.80;;
4547;SDS011;2286;51.570;7.090;2022-07-05T13:42:09;1.60;;;1.50;;
4547;SDS011;2286;51.570;7.090;2022-07-05T13:44:36;1.80;;;1.70;;
4547;SDS011;2286;51.570;7.090;2022-07-05T13:47:03;3.43;;;1.70;;
4547;SDS011;2286;51.570;7.090;2022-07-05T13:49:30;2.70;;;1.80;;
4547;SDS011;2286;51.570;7.090;2022-07-05T13:51:57;2.50;;;2.30;;
4547;SDS011;2286;51.570;7.090;2022-07-05T13:54:27;2.17;;;2.00;;
4547;SDS011;2286;51.570;7.090;2022-07-05T13:56:54;2.30;;;1.60;;
4547;SDS011;2286;51.570;7.090;2022-07-05T13:59:21;3.37;;;1.87;;
4547;SDS011;2286;51.570;7.090;2022-07-05T14:01:48;6.20;;;2.10;;
4547;SDS011;2286;51.570;7.090;2022-07-05T14:04:15;3.50;;;2.00;;
4547;SDS011;2286;51.570;7.090;2022-07-05T14:06:42;2.87;;;1.80;;
4547;SDS011;2286;51.570;7.090;2022-07-05T14:09:11;2.80;;;1.77;;
4547;SDS011;2286;51.570;7.090;2022-07-05T14:11:39;2.83;;;1.80;;
4547;SDS011;2286;51.570;7.090;2022-07-05T14:14:06;1.90;;;1.80;;
4547;SDS011;2286;51.570;7.090;2022-07-05T14:16:35;1.97;;;1.70;;
4547;SDS011;2286;51.570;7.090;2022-07-05T14:19:02;4.63;;;1.83;;
4547;SDS011;2286;51.570;7.090;2022-07-05T14:21:29;2.73;;;2.23;;
4547;SDS011;2286;51.570;7.090;2022-07-05T14:23:56;3.10;;;1.87;;
4547;SDS011;2286;51.570;7.090;2022-07-05T14:26:23;2.23;;;2.03;;
4547;SDS011;2286;51.570;7.090;2022-07-05T14:28:54;2.60;;;2.40;;
4547;SDS011;2286;51.570;7.090;2022-07-05T14:31:21;3.20;;;2.60;;
4547;SDS011;2286;51.570;7.090;2022-07-05T14:33:48;3.87;;;2.33;;
4547;SDS011;2286;51.570;7.090;2022-07-05T14:36:15;3.93;;;2.70;;
4547;SDS011;2286;51.570;7.090;2022-07-05T14:38:44;3.50;;;2.17;;
4547;SDS011;2286;51.570;7.090;2022-07-05T14:41:11;1.80;;;1.70;;
4547;SDS011;2286;51.570;7.090;2022-07-05T14:43:38;3.80;;;1.90;;
4547;SDS011;2286;51.570;7.090;2022-07-05T14:46:06;2.63;;;1.97;;
4547;SDS011;2286;51.570;7.090;2022-07-05T14:48:37;3.20;;;2.07;;
4547;SDS011;2286;51.570;7.090;2022-07-05T14:51:04;3.73;;;2.13;;
4547;SDS011;2286;51.570;7.090;2022-07-05T14:53:30;2.33;;;2.13;;
4547;SDS011;2286;51.570;7.090;2022-07-05T14:55:57;5.90;;;1.97;;
4547;SDS011;2286;51.570;7.090;2022-07-05T14:58:24;2.43;;;1.97;;
4547;SDS011;2286;51.570;7.090;2022-07-05T15:00:55;4.30;;;2.20;;
4547;SDS011;2286;51.570;7.090;2022-07-05T15:03:24;4.17;;;2.43;;
4547;SDS011;2286;51.570;7.090;2022-07-05T15:05:51;3.10;;;2.33;;
4547;SDS011;2286;51.570;7.090;2022-07-05T15:08:18;6.53;;;2.70;;
4547;SDS011;2286;51.570;7.090;2022-07-05T15:10:46;3.37;;;2.30;;
4547;SDS011;2286;51.570;7.090;2022-07-05T15:13:13;2.63;;;2.20;;
4547;SDS011;2286;51.570;7.090;2022-07-05T15:15:40;5.20;;;2.60;;
4547;SDS011;2286;51.570;7.090;2022-07-05T15:18:07;7.03;;;3.00;;
4547;SDS011;2286;51.570;7.090;2022-07-05T15:20:35;4.60;;;2.73;;
4547;SDS011;2286;51.570;7.090;2022-07-05T15:23:02;4.50;;;2.60;;
4547;SDS011;2286;51.570;7.090;2022-07-05T15:25:29;8.40;;;2.23;;
4547;SDS011;2286;51.570;7.090;2022-07-05T15:27:55;2.60;;;2.10;;
4547;SDS011;2286;51.570;7.090;2022-07-05T15:30:22;2.50;;;2.30;;
4547;SDS011;2286;51.570;7.090;2022-07-05T15:32:49;3.17;;;1.80;;